sensor_id;sensor_type;location;lat;lon;timestamp;P1;durP1;ratioP1;P2;durP2;ratioP2
8663;SDS011;4369;47.842;13.096;2022-12-08T06:17:49;4.72;;;4.28;;
8663;SDS011;4369;47.842;13.096;2022-12-08T06:20:16;4.20;;;3.80;;
8663;SDS011;4369;47.842;13.096;2022-12-08T06:22:43;5.07;;;4.53;;
8663;SDS011;4369;47.842;13.096;2022-12-08T06:25:10;6.47;;;5.47;;
8663;SDS011;4369;47.842;13.096;2022-12-08T06:27:37;13.30;;;10.30;;
8663;SDS011;4369;47.842;13.096;2022-12-08T06:30:04;15.40;;;12.43;;
8663;SDS011;4369;47.842;13.096;2022-12-08T06:32:32;14.60;;;10.97;;
8663;SDS011;4369;47.842;13.096;2022-12-08T06:35:00;10.77;;;9.10;;
8663;SDS011;4369;47.842;13.096;2022-12-08T06:37:27;9.77;;;8.70;;
8663;SDS011;4369;47.842;13.096;2022-12-08T06:39:54;9.10;;;7.57;;
8663;SDS011;4369;47.842;13.096;2022-12-08T06:42:20;28.77;;;17.40;;
8663;SDS011;4369;47.842;13.096;2022-12-08T06:45:05;21.13;;;14.93;;
8663;SDS011;4369;47.842;13.096;2022-12-08T06:47:32;11.03;;;8.47;;
8663;SDS011;4369;47.842;13.096;2022-12-08T06:52:36;8.63;;;7.20;;
8663;SDS011;4369;47.842;13.096;2022-12-08T06:55:05;7.37;;;5.90;;
8663;SDS011;4369;47.842;13.096;2022-12-08T06:57:33;6.97;;;4.90;;
8663;SDS011;4369;47.842;13.096;2022-12-08T07:00:02;4.90;;;4.20;;
8663;SDS011;4369;47.842;13.096;2022-12-08T07:02:33;4.33;;;3.93;;
8663;SDS011;4369;47.842;13.096;2022-12-08T07:05:02;3.80;;;3.40;;
8663;SDS011;4369;47.842;13.096;2022-12-08T07:07:29;3.50;;;3.20;;
8663;SDS011;4369;47.842;13.096;2022-12-08T07:09:58;9.93;;;6.60;;
8663;SDS011;4369;47.842;13.096;2022-12-08T07:12:25;10.00;;;6.30;;
8663;SDS011;4369;47.842;13.096;2022-12-08T07:15:32;12.43;;;9.40;;
8663;SDS011;4369;47.842;13.096;2022-12-08T07:20:41;17.83;;;12.30;;
8663;SDS011;4369;47.842;13.096;2022-12-08T07:23:09;47.93;;;24.23;;
8663;SDS011;4369;47.842;13.096;2022-12-08T07:25:38;56.93;;;30.83;;
8663;SDS011;4369;47.842;13.096;2022-12-08T07:30:31;102.90;;;47.73;;
8663;SDS011;4369;47.842;13.096;2022-12-08T07:47:03;28.27;;;25.43;;
8663;SDS011;4369;47.842;13.096;2022-12-08T07:55:02;19.60;;;17.73;;
8663;SDS011;4369;47.842;13.096;2022-12-08T08:00:52;14.07;;;12.67;;
8663;SDS011;4369;47.842;13.096;2022-12-08T08:10:59;15.10;;;12.60;;
8663;SDS011;4369;47.842;13.096;2022-12-08T08:13:27;14.93;;;12.83;;
8663;SDS011;4369;47.842;13.096;2022-12-08T08:15:54;19.13;;;14.60;;
8663;SDS011;4369;47.842;13.096;2022-12-08T08:18:29;20.88;;;17.13;;
8663;SDS011;4369;47.842;13.096;2022-12-08T08:20:55;64.33;;;34.20;;
8663;SDS011;4369;47.842;13.096;2022-12-08T08:23:22;63.05;;;36.97;;
8663;SDS011;4369;47.842;13.096;2022-12-08T08:28:21;118.67;;;56.63;;
8663;SDS011;4369;47.842;13.096;2022-12-08T08:35:59;55.10;;;33.70;;
8663;SDS011;4369;47.842;13.096;2022-12-08T08:38:28;56.07;;;34.77;;
8663;SDS011;4369;47.842;13.096;2022-12-08T08:43:32;27.40;;;17.85;;
8663;SDS011;4369;47.842;13.096;2022-12-08T08:46:00;26.73;;;18.53;;
8663;SDS011;4369;47.842;13.096;2022-12-08T08:48:28;31.30;;;20.60;;
8663;SDS011;4369;47.842;13.096;2022-12-08T08:50:56;31.20;;;20.47;;
8663;SDS011;4369;47.842;13.096;2022-12-08T08:53:23;22.77;;;14.93;;
8663;SDS011;4369;47.842;13.096;2022-12-08T08:55:50;23.23;;;15.33;;
8663;SDS011;4369;47.842;13.096;2022-12-08T08:58:17;19.97;;;12.27;;
8663;SDS011;4369;47.842;13.096;2022-12-08T09:00:46;20.40;;;12.07;;
8663;SDS011;4369;47.842;13.096;2022-12-08T09:03:12;18.33;;;11.30;;
8663;SDS011;4369;47.842;13.096;2022-12-08T09:55:23;8.80;;;5.93;;
8663;SDS011;4369;47.842;13.096;2022-12-08T10:00:33;3.53;;;3.23;;
8663;SDS011;4369;47.842;13.096;2022-12-08T10:08:13;5.30;;;4.33;;
8663;SDS011;4369;47.842;13.096;2022-12-08T10:11:21;11.20;;;5.00;;
8663;SDS011;4369;47.842;13.096;2022-12-08T10:16:54;5.73;;;4.00;;
8663;SDS011;4369;47.842;13.096;2022-12-08T10:46:06;5.63;;;3.87;;
8663;SDS011;4369;47.842;13.096;2022-12-08T10:54:34;15.07;;;5.47;;
8663;SDS011;4369;47.842;13.096;2022-12-08T10:57:42;7.55;;;4.90;;
8663;SDS011;4369;47.842;13.096;2022-12-08T11:00:14;5.28;;;4.18;;
8663;SDS011;4369;47.842;13.096;2022-12-08T11:02:55;16.88;;;5.15;;
8663;SDS011;4369;47.842;13.096;2022-12-08T11:08:37;8.02;;;4.30;;
8663;SDS011;4369;47.842;13.096;2022-12-08T11:11:14;9.93;;;5.03;;
8663;SDS011;4369;47.842;13.096;2022-12-08T11:13:44;14.95;;;6.75;;
8663;SDS011;4369;47.842;13.096;2022-12-08T11:16:15;9.27;;;6.82;;
8663;SDS011;4369;47.842;13.096;2022-12-08T11:18:54;9.80;;;5.13;;
8663;SDS011;4369;47.842;13.096;2022-12-08T11:21:29;7.35;;;3.80;;
8663;SDS011;4369;47.842;13.096;2022-12-08T11:24:20;7.25;;;4.28;;
8663;SDS011;4369;47.842;13.096;2022-12-08T11:26:51;9.32;;;4.15;;
8663;SDS011;4369;47.842;13.096;2022-12-08T11:29:21;5.70;;;4.30;;
8663;SDS011;4369;47.842;13.096;2022-12-08T11:31:49;5.85;;;4.00;;
8663;SDS011;4369;47.842;13.096;2022-12-08T11:36:45;7.75;;;4.20;;
8663;SDS011;4369;47.842;13.096;2022-12-08T11:39:18;6.03;;;4.10;;
8663;SDS011;4369;47.842;13.096;2022-12-08T11:41:57;8.88;;;4.95;;
8663;SDS011;4369;47.842;13.096;2022-12-08T11:44:30;8.47;;;5.10;;
8663;SDS011;4369;47.842;13.096;2022-12-08T11:47:05;6.33;;;4.40;;
8663;SDS011;4369;47.842;13.096;2022-12-08T11:49:40;6.75;;;4.65;;
8663;SDS011;4369;47.842;13.096;2022-12-08T11:52:10;6.27;;;4.33;;
8663;SDS011;4369;47.842;13.096;2022-12-08T11:57:19;7.03;;;4.53;;
8663;SDS011;4369;47.842;13.096;2022-12-08T12:02:19;5.63;;;5.00;;
8663;SDS011;4369;47.842;13.096;2022-12-08T12:04:49;7.20;;;5.23;;
8663;SDS011;4369;47.842;13.096;2022-12-08T12:10:18;7.03;;;4.57;;
8663;SDS011;4369;47.842;13.096;2022-12-08T12:13:07;7.83;;;4.67;;
8663;SDS011;4369;47.842;13.096;2022-12-08T12:18:15;6.40;;;4.50;;
8663;SDS011;4369;47.842;13.096;2022-12-08T12:31:10;7.03;;;4.70;;
8663;SDS011;4369;47.842;13.096;2022-12-08T12:33:42;10.50;;;7.70;;
8663;SDS011;4369;47.842;13.096;2022-12-08T12:39:31;6.30;;;5.70;;
8663;SDS011;4369;47.842;13.096;2022-12-08T12:42:41;6.03;;;5.53;;
8663;SDS011;4369;47.842;13.096;2022-12-08T12:45:27;7.73;;;6.47;;
8663;SDS011;4369;47.842;13.096;2022-12-08T12:48:18;10.20;;;5.70;;
8663;SDS011;4369;47.842;13.096;2022-12-08T12:50:52;6.07;;;5.47;;
8663;SDS011;4369;47.842;13.096;2022-12-08T13:11:11;10.07;;;5.60;;
8663;SDS011;4369;47.842;13.096;2022-12-08T13:13:38;9.23;;;4.70;;
8663;SDS011;4369;47.842;13.096;2022-12-08T13:16:22;9.70;;;4.47;;
8663;SDS011;4369;47.842;13.096;2022-12-08T13:18:50;6.03;;;4.53;;
8663;SDS011;4369;47.842;13.096;2022-12-08T13:21:22;5.43;;;4.60;;
8663;SDS011;4369;47.842;13.096;2022-12-08T13:24:11;13.60;;;5.67;;
8663;SDS011;4369;47.842;13.096;2022-12-08T13:26:43;8.17;;;6.80;;
8663;SDS011;4369;47.842;13.096;2022-12-08T13:29:21;7.97;;;5.10;;
8663;SDS011;4369;47.842;13.096;2022-12-08T13:31:50;7.23;;;5.00;;
8663;SDS011;4369;47.842;13.096;2022-12-08T13:34:19;6.40;;;5.03;;
8663;SDS011;4369;47.842;13.096;2022-12-08T13:36:55;6.87;;;5.53;;
8663;SDS011;4369;47.842;13.096;2022-12-08T13:39:31;7.20;;;6.60;;
8663;SDS011;4369;47.842;13.096;2022-12-08T13:42:11;5.90;;;5.30;;
8663;SDS011;4369;47.842;13.096;2022-12-08T13:44:42;8.20;;;5.10;;
8663;SDS011;4369;47.842;13.096;2022-12-08T13:47:14;5.83;;;5.10;;
8663;SDS011;4369;47.842;13.096;2022-12-08T13:49:47;5.50;;;5.00;;
8663;SDS011;4369;47.842;13.096;2022-12-08T13:52:28;8.77;;;6.00;;
8663;SDS011;4369;47.842;13.096;2022-12-08T13:54:59;5.93;;;5.33;;
8663;SDS011;4369;47.842;13.096;2022-12-08T13:57:30;7.03;;;5.77;;
8663;SDS011;4369;47.842;13.096;2022-12-08T13:59:58;7.07;;;5.07;;
8663;SDS011;4369;47.842;13.096;2022-12-08T14:02:26;7.43;;;5.40;;
8663;SDS011;4369;47.842;13.096;2022-12-08T14:04:58;6.00;;;5.37;;
8663;SDS011;4369;47.842;13.096;2022-12-08T14:07:27;7.90;;;5.13;;
8663;SDS011;4369;47.842;13.096;2022-12-08T14:09:56;8.93;;;5.03;;
8663;SDS011;4369;47.842;13.096;2022-12-08T14:12:24;8.23;;;5.20;;
8663;SDS011;4369;47.842;13.096;2022-12-08T14:14:57;6.27;;;5.60;;
8663;SDS011;4369;47.842;13.096;2022-12-08T14:17:26;6.23;;;5.53;;
8663;SDS011;4369;47.842;13.096;2022-12-08T14:19:54;10.10;;;7.50;;
8663;SDS011;4369;47.842;13.096;2022-12-08T14:22:22;9.73;;;6.33;;
8663;SDS011;4369;47.842;13.096;2022-12-08T14:24:51;7.23;;;5.57;;
8663;SDS011;4369;47.842;13.096;2022-12-08T14:27:19;6.77;;;5.70;;
8663;SDS011;4369;47.842;13.096;2022-12-08T14:29:48;10.30;;;5.83;;
8663;SDS011;4369;47.842;13.096;2022-12-08T14:32:22;7.90;;;5.90;;
8663;SDS011;4369;47.842;13.096;2022-12-08T14:37:17;7.63;;;5.40;;
8663;SDS011;4369;47.842;13.096;2022-12-08T14:44:56;7.20;;;6.20;;
8663;SDS011;4369;47.842;13.096;2022-12-08T14:47:30;8.10;;;5.60;;
8663;SDS011;4369;47.842;13.096;2022-12-08T14:49:59;7.57;;;6.17;;
8663;SDS011;4369;47.842;13.096;2022-12-08T14:52:27;7.83;;;5.87;;
8663;SDS011;4369;47.842;13.096;2022-12-08T14:54:54;5.90;;;5.13;;
8663;SDS011;4369;47.842;13.096;2022-12-08T14:57:26;6.33;;;5.30;;
8663;SDS011;4369;47.842;13.096;2022-12-08T15:00:05;9.60;;;6.20;;
8663;SDS011;4369;47.842;13.096;2022-12-08T15:02:35;6.53;;;5.80;;
8663;SDS011;4369;47.842;13.096;2022-12-08T15:05:10;7.17;;;6.47;;
8663;SDS011;4369;47.842;13.096;2022-12-08T15:12:58;7.17;;;5.97;;
8663;SDS011;4369;47.842;13.096;2022-12-08T15:18:10;6.10;;;5.50;;
8663;SDS011;4369;47.842;13.096;2022-12-08T15:20:39;7.60;;;5.50;;
8663;SDS011;4369;47.842;13.096;2022-12-08T15:23:16;6.83;;;5.50;;
8663;SDS011;4369;47.842;13.096;2022-12-08T15:33:24;6.63;;;5.50;;
8663;SDS011;4369;47.842;13.096;2022-12-08T15:35:51;7.20;;;5.80;;
8663;SDS011;4369;47.842;13.096;2022-12-08T15:44:16;17.67;;;14.50;;
8663;SDS011;4369;47.842;13.096;2022-12-08T15:46:43;11.70;;;10.50;;
8663;SDS011;4369;47.842;13.096;2022-12-08T16:03:25;15.80;;;10.65;;
8663;SDS011;4369;47.842;13.096;2022-12-08T16:05:54;15.97;;;10.90;;
8663;SDS011;4369;47.842;13.096;2022-12-08T16:08:22;9.57;;;8.47;;
8663;SDS011;4369;47.842;13.096;2022-12-08T16:10:49;12.20;;;9.90;;
8663;SDS011;4369;47.842;13.096;2022-12-08T16:13:17;18.97;;;15.50;;
8663;SDS011;4369;47.842;13.096;2022-12-08T16:16:08;18.17;;;16.33;;
8663;SDS011;4369;47.842;13.096;2022-12-08T16:18:43;15.50;;;13.10;;
8663;SDS011;4369;47.842;13.096;2022-12-08T16:21:13;14.47;;;10.50;;
8663;SDS011;4369;47.842;13.096;2022-12-08T16:23:40;11.97;;;10.67;;
8663;SDS011;4369;47.842;13.096;2022-12-08T16:26:09;15.20;;;12.10;;
8663;SDS011;4369;47.842;13.096;2022-12-08T16:28:37;15.73;;;12.20;;
8663;SDS011;4369;47.842;13.096;2022-12-08T16:31:06;17.33;;;12.40;;
8663;SDS011;4369;47.842;13.096;2022-12-08T16:33:33;16.50;;;11.73;;
8663;SDS011;4369;47.842;13.096;2022-12-08T16:36:01;16.73;;;11.53;;
8663;SDS011;4369;47.842;13.096;2022-12-08T16:38:38;13.73;;;8.80;;
8663;SDS011;4369;47.842;13.096;2022-12-08T16:41:05;15.67;;;9.63;;
8663;SDS011;4369;47.842;13.096;2022-12-08T16:43:49;13.53;;;10.07;;
8663;SDS011;4369;47.842;13.096;2022-12-08T16:46:19;13.53;;;9.30;;
8663;SDS011;4369;47.842;13.096;2022-12-08T16:51:31;18.20;;;10.10;;
8663;SDS011;4369;47.842;13.096;2022-12-08T16:53:58;17.53;;;12.30;;
8663;SDS011;4369;47.842;13.096;2022-12-08T16:56:25;21.10;;;14.00;;
8663;SDS011;4369;47.842;13.096;2022-12-08T17:01:18;23.93;;;15.17;;
8663;SDS011;4369;47.842;13.096;2022-12-08T17:03:45;25.63;;;16.87;;
8663;SDS011;4369;47.842;13.096;2022-12-08T17:06:13;21.97;;;16.83;;
8663;SDS011;4369;47.842;13.096;2022-12-08T17:08:43;24.23;;;18.00;;
8663;SDS011;4369;47.842;13.096;2022-12-08T17:11:18;22.43;;;16.90;;
8663;SDS011;4369;47.842;13.096;2022-12-08T17:13:46;25.67;;;17.30;;
8663;SDS011;4369;47.842;13.096;2022-12-08T17:16:14;24.80;;;16.73;;
8663;SDS011;4369;47.842;13.096;2022-12-08T17:18:43;27.07;;;16.90;;
8663;SDS011;4369;47.842;13.096;2022-12-08T17:21:10;25.93;;;16.93;;
8663;SDS011;4369;47.842;13.096;2022-12-08T17:23:38;25.80;;;17.43;;
8663;SDS011;4369;47.842;13.096;2022-12-08T17:26:07;22.13;;;14.63;;
8663;SDS011;4369;47.842;13.096;2022-12-08T17:28:34;25.50;;;15.30;;
8663;SDS011;4369;47.842;13.096;2022-12-08T17:31:05;24.73;;;14.97;;
8663;SDS011;4369;47.842;13.096;2022-12-08T17:33:34;21.27;;;13.87;;
8663;SDS011;4369;47.842;13.096;2022-12-08T17:36:01;19.67;;;13.33;;
8663;SDS011;4369;47.842;13.096;2022-12-08T17:38:28;22.67;;;13.93;;
8663;SDS011;4369;47.842;13.096;2022-12-08T17:43:22;18.67;;;14.17;;
8663;SDS011;4369;47.842;13.096;2022-12-08T17:45:48;18.30;;;13.57;;
8663;SDS011;4369;47.842;13.096;2022-12-08T17:50:51;27.70;;;17.77;;
8663;SDS011;4369;47.842;13.096;2022-12-08T17:53:19;26.13;;;15.90;;
8663;SDS011;4369;47.842;13.096;2022-12-08T17:59:10;17.17;;;13.27;;
8663;SDS011;4369;47.842;13.096;2022-12-08T18:01:39;17.10;;;13.57;;
8663;SDS011;4369;47.842;13.096;2022-12-08T18:04:07;18.37;;;12.87;;
8663;SDS011;4369;47.842;13.096;2022-12-08T18:06:36;18.37;;;13.07;;
8663;SDS011;4369;47.842;13.096;2022-12-08T18:09:04;17.07;;;12.67;;
8663;SDS011;4369;47.842;13.096;2022-12-08T18:11:33;20.30;;;14.27;;
8663;SDS011;4369;47.842;13.096;2022-12-08T18:14:00;30.43;;;20.60;;
8663;SDS011;4369;47.842;13.096;2022-12-08T18:16:35;15.47;;;12.40;;
8663;SDS011;4369;47.842;13.096;2022-12-08T18:19:03;13.77;;;11.47;;
8663;SDS011;4369;47.842;13.096;2022-12-08T18:21:31;17.47;;;12.23;;
8663;SDS011;4369;47.842;13.096;2022-12-08T18:23:58;16.20;;;11.63;;
8663;SDS011;4369;47.842;13.096;2022-12-08T18:26:25;15.33;;;11.43;;
8663;SDS011;4369;47.842;13.096;2022-12-08T18:28:52;11.73;;;9.93;;
8663;SDS011;4369;47.842;13.096;2022-12-08T18:31:19;12.23;;;9.23;;
8663;SDS011;4369;47.842;13.096;2022-12-08T18:33:48;14.90;;;9.87;;
8663;SDS011;4369;47.842;13.096;2022-12-08T18:36:17;12.47;;;9.17;;
8663;SDS011;4369;47.842;13.096;2022-12-08T18:38:45;16.20;;;11.50;;
8663;SDS011;4369;47.842;13.096;2022-12-08T18:41:13;18.00;;;12.27;;
8663;SDS011;4369;47.842;13.096;2022-12-08T18:43:41;15.53;;;11.47;;
8663;SDS011;4369;47.842;13.096;2022-12-08T18:46:09;19.53;;;12.53;;
8663;SDS011;4369;47.842;13.096;2022-12-08T18:48:41;20.03;;;13.40;;
8663;SDS011;4369;47.842;13.096;2022-12-08T18:51:11;34.30;;;18.30;;
8663;SDS011;4369;47.842;13.096;2022-12-08T18:53:39;86.30;;;41.00;;
8663;SDS011;4369;47.842;13.096;2022-12-08T18:56:06;104.97;;;47.93;;
8663;SDS011;4369;47.842;13.096;2022-12-08T18:58:34;60.17;;;32.97;;
8663;SDS011;4369;47.842;13.096;2022-12-08T19:01:01;33.30;;;21.50;;
8663;SDS011;4369;47.842;13.096;2022-12-08T19:03:28;24.40;;;16.53;;
8663;SDS011;4369;47.842;13.096;2022-12-08T19:06:00;21.10;;;14.27;;
8663;SDS011;4369;47.842;13.096;2022-12-08T19:08:29;19.37;;;12.63;;
8663;SDS011;4369;47.842;13.096;2022-12-08T19:10:56;17.40;;;11.67;;
8663;SDS011;4369;47.842;13.096;2022-12-08T19:13:26;14.90;;;11.80;;
8663;SDS011;4369;47.842;13.096;2022-12-08T19:15:52;18.50;;;13.90;;
8663;SDS011;4369;47.842;13.096;2022-12-08T19:18:19;19.47;;;15.97;;
8663;SDS011;4369;47.842;13.096;2022-12-08T19:20:46;19.57;;;15.50;;
8663;SDS011;4369;47.842;13.096;2022-12-08T19:23:14;16.77;;;12.17;;
8663;SDS011;4369;47.842;13.096;2022-12-08T19:25:44;11.67;;;9.10;;
8663;SDS011;4369;47.842;13.096;2022-12-08T19:28:11;10.13;;;8.23;;
8663;SDS011;4369;47.842;13.096;2022-12-08T19:30:38;12.73;;;8.40;;
8663;SDS011;4369;47.842;13.096;2022-12-08T19:33:05;13.40;;;8.50;;
8663;SDS011;4369;47.842;13.096;2022-12-08T19:35:32;16.50;;;10.70;;
8663;SDS011;4369;47.842;13.096;2022-12-08T19:38:01;15.40;;;9.30;;
8663;SDS011;4369;47.842;13.096;2022-12-08T19:40:28;16.57;;;10.33;;
8663;SDS011;4369;47.842;13.096;2022-12-08T19:43:20;24.67;;;15.47;;
8663;SDS011;4369;47.842;13.096;2022-12-08T19:46:10;21.13;;;12.10;;
8663;SDS011;4369;47.842;13.096;2022-12-08T19:48:38;10.27;;;7.57;;
8663;SDS011;4369;47.842;13.096;2022-12-08T19:51:05;10.27;;;7.17;;
8663;SDS011;4369;47.842;13.096;2022-12-08T19:53:32;8.53;;;6.77;;
8663;SDS011;4369;47.842;13.096;2022-12-08T19:55:59;7.87;;;6.63;;
8663;SDS011;4369;47.842;13.096;2022-12-08T19:58:27;8.07;;;6.40;;
8663;SDS011;4369;47.842;13.096;2022-12-08T20:00:54;10.63;;;6.53;;
8663;SDS011;4369;47.842;13.096;2022-12-08T20:03:21;9.73;;;7.13;;
8663;SDS011;4369;47.842;13.096;2022-12-08T20:05:48;8.63;;;6.90;;
8663;SDS011;4369;47.842;13.096;2022-12-08T20:08:17;6.93;;;5.67;;
8663;SDS011;4369;47.842;13.096;2022-12-08T20:10:44;6.10;;;5.50;;
8663;SDS011;4369;47.842;13.096;2022-12-08T20:13:11;7.50;;;5.93;;
8663;SDS011;4369;47.842;13.096;2022-12-08T20:15:57;6.53;;;5.93;;
8663;SDS011;4369;47.842;13.096;2022-12-08T20:18:24;7.37;;;5.90;;
8663;SDS011;4369;47.842;13.096;2022-12-08T20:20:52;7.27;;;5.97;;
8663;SDS011;4369;47.842;13.096;2022-12-08T20:23:21;8.50;;;7.60;;
8663;SDS011;4369;47.842;13.096;2022-12-08T20:25:48;9.47;;;7.93;;
8663;SDS011;4369;47.842;13.096;2022-12-08T20:28:14;11.80;;;8.43;;
8663;SDS011;4369;47.842;13.096;2022-12-08T20:30:43;9.17;;;7.20;;
8663;SDS011;4369;47.842;13.096;2022-12-08T20:33:12;7.77;;;6.03;;
8663;SDS011;4369;47.842;13.096;2022-12-08T20:35:39;7.00;;;5.80;;
8663;SDS011;4369;47.842;13.096;2022-12-08T20:38:07;7.10;;;5.57;;
8663;SDS011;4369;47.842;13.096;2022-12-08T20:40:34;6.93;;;5.43;;
8663;SDS011;4369;47.842;13.096;2022-12-08T20:43:01;8.00;;;5.30;;
8663;SDS011;4369;47.842;13.096;2022-12-08T20:45:28;7.73;;;5.60;;
8663;SDS011;4369;47.842;13.096;2022-12-08T20:47:54;6.73;;;5.10;;
8663;SDS011;4369;47.842;13.096;2022-12-08T20:50:23;6.93;;;4.87;;
8663;SDS011;4369;47.842;13.096;2022-12-08T20:52:50;6.50;;;4.40;;
8663;SDS011;4369;47.842;13.096;2022-12-08T20:55:17;6.30;;;4.70;;
8663;SDS011;4369;47.842;13.096;2022-12-08T20:57:44;5.57;;;4.90;;
8663;SDS011;4369;47.842;13.096;2022-12-08T21:00:11;5.90;;;4.77;;
8663;SDS011;4369;47.842;13.096;2022-12-08T21:02:38;5.50;;;4.43;;
8663;SDS011;4369;47.842;13.096;2022-12-08T21:05:06;8.63;;;6.13;;
8663;SDS011;4369;47.842;13.096;2022-12-08T21:07:34;9.00;;;6.40;;
8663;SDS011;4369;47.842;13.096;2022-12-08T21:10:01;8.07;;;5.60;;
8663;SDS011;4369;47.842;13.096;2022-12-08T21:12:28;9.20;;;6.13;;
8663;SDS011;4369;47.842;13.096;2022-12-08T21:14:56;6.87;;;6.13;;
8663;SDS011;4369;47.842;13.096;2022-12-08T21:17:23;8.17;;;6.33;;
8663;SDS011;4369;47.842;13.096;2022-12-08T21:19:50;8.00;;;6.50;;
8663;SDS011;4369;47.842;13.096;2022-12-08T21:22:16;9.40;;;6.90;;
8663;SDS011;4369;47.842;13.096;2022-12-08T21:24:46;7.93;;;6.07;;
8663;SDS011;4369;47.842;13.096;2022-12-08T21:27:13;7.97;;;6.17;;
8663;SDS011;4369;47.842;13.096;2022-12-08T21:29:40;8.60;;;6.17;;
8663;SDS011;4369;47.842;13.096;2022-12-08T21:32:07;9.87;;;6.97;;
8663;SDS011;4369;47.842;13.096;2022-12-08T21:34:34;7.87;;;6.57;;
8663;SDS011;4369;47.842;13.096;2022-12-08T21:37:00;9.20;;;7.13;;
8663;SDS011;4369;47.842;13.096;2022-12-08T21:39:27;9.60;;;6.87;;
8663;SDS011;4369;47.842;13.096;2022-12-08T21:41:56;10.20;;;6.30;;
8663;SDS011;4369;47.842;13.096;2022-12-08T21:44:41;7.83;;;5.50;;
8663;SDS011;4369;47.842;13.096;2022-12-08T21:47:07;6.40;;;5.47;;
8663;SDS011;4369;47.842;13.096;2022-12-08T21:49:34;7.43;;;5.53;;
8663;SDS011;4369;47.842;13.096;2022-12-08T21:52:01;8.80;;;5.80;;
8663;SDS011;4369;47.842;13.096;2022-12-08T21:54:28;6.47;;;5.13;;
8663;SDS011;4369;47.842;13.096;2022-12-08T21:56:56;8.43;;;5.27;;
8663;SDS011;4369;47.842;13.096;2022-12-08T21:59:23;6.17;;;5.13;;
8663;SDS011;4369;47.842;13.096;2022-12-08T22:01:50;6.67;;;5.37;;
8663;SDS011;4369;47.842;13.096;2022-12-08T22:04:17;6.30;;;5.10;;
8663;SDS011;4369;47.842;13.096;2022-12-08T22:06:45;9.30;;;4.83;;
8663;SDS011;4369;47.842;13.096;2022-12-08T22:09:12;4.93;;;4.43;;
8663;SDS011;4369;47.842;13.096;2022-12-08T22:11:39;6.57;;;4.33;;
8663;SDS011;4369;47.842;13.096;2022-12-08T22:14:08;6.00;;;4.17;;
8663;SDS011;4369;47.842;13.096;2022-12-08T22:16:35;7.23;;;4.40;;
8663;SDS011;4369;47.842;13.096;2022-12-08T22:19:02;5.20;;;4.20;;
8663;SDS011;4369;47.842;13.096;2022-12-08T22:21:29;4.00;;;3.57;;
8663;SDS011;4369;47.842;13.096;2022-12-08T22:23:56;4.57;;;3.57;;
8663;SDS011;4369;47.842;13.096;2022-12-08T22:26:24;4.87;;;4.00;;
8663;SDS011;4369;47.842;13.096;2022-12-08T22:28:51;5.17;;;4.03;;
8663;SDS011;4369;47.842;13.096;2022-12-08T22:31:19;4.17;;;3.70;;
8663;SDS011;4369;47.842;13.096;2022-12-08T22:33:46;4.60;;;3.60;;
8663;SDS011;4369;47.842;13.096;2022-12-08T22:36:14;4.53;;;3.90;;
8663;SDS011;4369;47.842;13.096;2022-12-08T22:38:43;5.97;;;4.10;;
8663;SDS011;4369;47.842;13.096;2022-12-08T22:41:10;3.93;;;3.60;;
8663;SDS011;4369;47.842;13.096;2022-12-08T22:43:37;4.67;;;3.87;;
8663;SDS011;4369;47.842;13.096;2022-12-08T22:46:05;8.10;;;4.43;;
8663;SDS011;4369;47.842;13.096;2022-12-08T22:48:34;5.27;;;3.97;;
8663;SDS011;4369;47.842;13.096;2022-12-08T22:51:01;6.80;;;4.10;;
8663;SDS011;4369;47.842;13.096;2022-12-08T22:53:28;5.83;;;4.20;;
8663;SDS011;4369;47.842;13.096;2022-12-08T22:55:55;5.17;;;4.17;;
8663;SDS011;4369;47.842;13.096;2022-12-08T22:58:21;4.70;;;3.90;;
8663;SDS011;4369;47.842;13.096;2022-12-08T23:00:48;6.33;;;4.37;;
8663;SDS011;4369;47.842;13.096;2022-12-08T23:03:16;6.70;;;4.33;;
8663;SDS011;4369;47.842;13.096;2022-12-08T23:05:44;4.43;;;4.00;;
8663;SDS011;4369;47.842;13.096;2022-12-08T23:08:11;5.43;;;3.97;;
8663;SDS011;4369;47.842;13.096;2022-12-08T23:10:40;4.97;;;3.63;;
8663;SDS011;4369;47.842;13.096;2022-12-08T23:13:08;6.43;;;3.70;;
8663;SDS011;4369;47.842;13.096;2022-12-08T23:15:35;5.37;;;3.90;;
8663;SDS011;4369;47.842;13.096;2022-12-08T23:18:02;4.90;;;3.93;;
8663;SDS011;4369;47.842;13.096;2022-12-08T23:20:29;5.67;;;3.77;;
8663;SDS011;4369;47.842;13.096;2022-12-08T23:22:57;6.60;;;3.53;;
8663;SDS011;4369;47.842;13.096;2022-12-08T23:25:24;4.73;;;3.60;;
8663;SDS011;4369;47.842;13.096;2022-12-08T23:27:51;4.93;;;3.70;;
8663;SDS011;4369;47.842;13.096;2022-12-08T23:30:18;5.47;;;3.53;;
8663;SDS011;4369;47.842;13.096;2022-12-08T23:32:45;5.17;;;3.80;;
8663;SDS011;4369;47.842;13.096;2022-12-08T23:35:11;6.33;;;3.97;;
8663;SDS011;4369;47.842;13.096;2022-12-08T23:37:38;6.43;;;3.47;;
8663;SDS011;4369;47.842;13.096;2022-12-08T23:40:07;4.97;;;3.30;;
8663;SDS011;4369;47.842;13.096;2022-12-08T23:42:34;4.27;;;3.37;;
8663;SDS011;4369;47.842;13.096;2022-12-08T23:45:01;4.03;;;3.10;;
8663;SDS011;4369;47.842;13.096;2022-12-08T23:47:28;5.43;;;3.30;;
8663;SDS011;4369;47.842;13.096;2022-12-08T23:49:55;3.43;;;3.13;;
8663;SDS011;4369;47.842;13.096;2022-12-08T23:52:22;4.17;;;2.97;;
8663;SDS011;4369;47.842;13.096;2022-12-08T23:54:49;4.67;;;3.10;;
8663;SDS011;4369;47.842;13.096;2022-12-08T23:57:17;3.37;;;2.73;;
8663;SDS011;4369;47.842;13.096;2022-12-08T23:59:44;4.73;;;3.57;;
